sensor_id;sensor_type;location;lat;lon;timestamp;pressure;altitude;pressure_sealevel;temperature;humidity
10638;BME280;47007;49.252;8.904;2023-05-19T00:00:12;100391.78;;;11.57;100.00
10638;BME280;47007;49.252;8.904;2023-05-19T00:00:56;100388.31;;;11.56;100.00
10638;BME280;47007;49.252;8.904;2023-05-19T00:01:38;100389.31;;;11.55;100.00
10638;BME280;47007;49.252;8.904;2023-05-19T00:02:24;100384.00;;;11.55;100.00
10638;BME280;47007;49.252;8.904;2023-05-19T00:03:06;100356.91;;;11.37;100.00
10638;BME280;47007;49.252;8.904;2023-05-19T00:03:51;100361.69;;;11.41;100.00
10638;BME280;47007;49.252;8.904;2023-05-19T00:04:34;100366.47;;;11.46;100.00
10638;BME280;47007;49.252;8.904;2023-05-19T00:05:16;100393.94;;;11.61;100.00
10638;BME280;47007;49.252;8.904;2023-05-19T00:06:01;100388.41;;;11.63;100.00
10638;BME280;47007;49.252;8.904;2023-05-19T00:06:46;100391.06;;;11.63;100.00
10638;BME280;47007;49.252;8.904;2023-05-19T00:07:31;100396.03;;;11.66;100.00
10638;BME280;47007;49.252;8.904;2023-05-19T00:08:17;100386.25;;;11.66;100.00
10638;BME280;47007;49.252;8.904;2023-05-19T00:09:04;100380.34;;;11.56;100.00
10638;BME280;47007;49.252;8.904;2023-05-19T00:09:46;100371.72;;;11.54;100.00
10638;BME280;47007;49.252;8.904;2023-05-19T00:10:28;100371.38;;;11.57;100.00
10638;BME280;47007;49.252;8.904;2023-05-19T00:11:12;100388.25;;;11.64;100.00
10638;BME280;47007;49.252;8.904;2023-05-19T00:11:54;100399.03;;;11.63;100.00
10638;BME280;47007;49.252;8.904;2023-05-19T00:12:37;100377.34;;;11.59;100.00
10638;BME280;47007;49.252;8.904;2023-05-19T00:13:19;100385.13;;;11.61;100.00
10638;BME280;47007;49.252;8.904;2023-05-19T00:14:03;100369.78;;;11.48;100.00
10638;BME280;47007;49.252;8.904;2023-05-19T00:14:45;100389.44;;;11.62;100.00
10638;BME280;47007;49.252;8.904;2023-05-19T00:15:27;100386.78;;;11.62;100.00
10638;BME280;47007;49.252;8.904;2023-05-19T00:16:10;100379.63;;;11.62;100.00
10638;BME280;47007;49.252;8.904;2023-05-19T00:16:52;100376.97;;;11.62;100.00
10638;BME280;47007;49.252;8.904;2023-05-19T00:17:36;100378.63;;;11.63;100.00
10638;BME280;47007;49.252;8.904;2023-05-19T00:18:18;100376.78;;;11.64;100.00
10638;BME280;47007;49.252;8.904;2023-05-19T00:19:02;100365.88;;;11.59;100.00
10638;BME280;47007;49.252;8.904;2023-05-19T00:19:44;100374.63;;;11.67;100.00
10638;BME280;47007;49.252;8.904;2023-05-19T00:20:26;100358.75;;;11.59;100.00
10638;BME280;47007;49.252;8.904;2023-05-19T00:21:08;100377.63;;;11.64;100.00
10638;BME280;47007;49.252;8.904;2023-05-19T00:21:49;100375.34;;;11.61;100.00
10638;BME280;47007;49.252;8.904;2023-05-19T00:22:31;100373.69;;;11.60;100.00
10638;BME280;47007;49.252;8.904;2023-05-19T00:23:13;100372.38;;;11.56;100.00
10638;BME280;47007;49.252;8.904;2023-05-19T00:23:55;100376.50;;;11.59;100.00
10638;BME280;47007;49.252;8.904;2023-05-19T00:24:37;100359.78;;;11.50;100.00
10638;BME280;47007;49.252;8.904;2023-05-19T00:25:21;100373.84;;;11.59;100.00
10638;BME280;47007;49.252;8.904;2023-05-19T00:26:03;100371.03;;;11.60;100.00
10638;BME280;47007;49.252;8.904;2023-05-19T00:26:44;100372.03;;;11.59;100.00
10638;BME280;47007;49.252;8.904;2023-05-19T00:27:26;100374.03;;;11.57;100.00
10638;BME280;47007;49.252;8.904;2023-05-19T00:28:08;100369.53;;;11.58;100.00
10638;BME280;47007;49.252;8.904;2023-05-19T00:28:49;100370.88;;;11.53;100.00
10638;BME280;47007;49.252;8.904;2023-05-19T00:29:31;100365.09;;;11.50;100.00
10638;BME280;47007;49.252;8.904;2023-05-19T00:30:13;100354.25;;;11.37;100.00
10638;BME280;47007;49.252;8.904;2023-05-19T00:30:55;100361.84;;;11.40;100.00
10638;BME280;47007;49.252;8.904;2023-05-19T00:31:37;100307.97;;;11.08;100.00
10638;BME280;47007;49.252;8.904;2023-05-19T00:32:18;100364.66;;;11.46;100.00
10638;BME280;47007;49.252;8.904;2023-05-19T00:33:00;100373.25;;;11.48;100.00
10638;BME280;47007;49.252;8.904;2023-05-19T00:33:42;100353.88;;;11.40;100.00
10638;BME280;47007;49.252;8.904;2023-05-19T00:34:24;100359.19;;;11.40;100.00
10638;BME280;47007;49.252;8.904;2023-05-19T00:35:06;100367.13;;;11.48;100.00
10638;BME280;47007;49.252;8.904;2023-05-19T00:35:48;100371.44;;;11.49;100.00
10638;BME280;47007;49.252;8.904;2023-05-19T00:36:29;100355.88;;;11.38;100.00
10638;BME280;47007;49.252;8.904;2023-05-19T00:37:11;100359.03;;;11.41;100.00
10638;BME280;47007;49.252;8.904;2023-05-19T00:37:53;100376.09;;;11.47;100.00
10638;BME280;47007;49.252;8.904;2023-05-19T00:38:35;100364.66;;;11.46;100.00
10638;BME280;47007;49.252;8.904;2023-05-19T00:39:17;100359.69;;;11.43;100.00
10638;BME280;47007;49.252;8.904;2023-05-19T00:39:59;100366.47;;;11.46;100.00
10638;BME280;47007;49.252;8.904;2023-05-19T00:40:41;100356.72;;;11.38;100.00
10638;BME280;47007;49.252;8.904;2023-05-19T00:41:22;100362.69;;;11.40;100.00
10638;BME280;47007;49.252;8.904;2023-05-19T00:42:04;100331.56;;;11.26;100.00
10638;BME280;47007;49.252;8.904;2023-05-19T00:42:46;100367.81;;;11.42;100.00
10638;BME280;47007;49.252;8.904;2023-05-19T00:43:28;100376.78;;;11.41;100.00
10638;BME280;47007;49.252;8.904;2023-05-19T00:44:14;100357.94;;;11.28;100.00
10638;BME280;47007;49.252;8.904;2023-05-19T00:44:56;100375.13;;;11.40;100.00
10638;BME280;47007;49.252;8.904;2023-05-19T00:45:41;100354.47;;;11.27;100.00
10638;BME280;47007;49.252;8.904;2023-05-19T00:46:22;100362.72;;;11.32;100.00
10638;BME280;47007;49.252;8.904;2023-05-19T00:47:04;100369.53;;;11.35;100.00
10638;BME280;47007;49.252;8.904;2023-05-19T00:47:46;100373.47;;;11.39;100.00
10638;BME280;47007;49.252;8.904;2023-05-19T00:48:30;100367.16;;;11.40;100.00
10638;BME280;47007;49.252;8.904;2023-05-19T00:49:11;100369.63;;;11.41;100.00
10638;BME280;47007;49.252;8.904;2023-05-19T00:49:54;100370.47;;;11.42;100.00
10638;BME280;47007;49.252;8.904;2023-05-19T00:50:35;100375.13;;;11.40;100.00
10638;BME280;47007;49.252;8.904;2023-05-19T00:51:17;100372.84;;;11.37;100.00
10638;BME280;47007;49.252;8.904;2023-05-19T00:52:00;100370.19;;;11.37;100.00
10638;BME280;47007;49.252;8.904;2023-05-19T00:52:42;100350.53;;;11.23;100.00
10638;BME280;47007;49.252;8.904;2023-05-19T00:53:24;100356.28;;;11.27;100.00
10638;BME280;47007;49.252;8.904;2023-05-19T00:54:07;100359.75;;;11.35;100.00
10638;BME280;47007;49.252;8.904;2023-05-19T00:54:50;100363.72;;;11.31;100.00
10638;BME280;47007;49.252;8.904;2023-05-19T00:55:32;100364.38;;;11.33;100.00
10638;BME280;47007;49.252;8.904;2023-05-19T00:56:17;100370.03;;;11.30;100.00
10638;BME280;47007;49.252;8.904;2023-05-19T00:56:59;100371.53;;;11.33;100.00
10638;BME280;47007;49.252;8.904;2023-05-19T00:57:42;100374.69;;;11.28;100.00
10638;BME280;47007;49.252;8.904;2023-05-19T00:58:24;100368.69;;;11.34;100.00
10638;BME280;47007;49.252;8.904;2023-05-19T00:59:09;100371.19;;;11.36;100.00
10638;BME280;47007;49.252;8.904;2023-05-19T00:59:51;100377.31;;;11.36;100.00
10638;BME280;47007;49.252;8.904;2023-05-19T01:00:33;100372.00;;;11.36;100.00
10638;BME280;47007;49.252;8.904;2023-05-19T01:01:16;100347.88;;;11.23;100.00
10638;BME280;47007;49.252;8.904;2023-05-19T01:01:58;100364.91;;;11.29;100.00
10638;BME280;47007;49.252;8.904;2023-05-19T01:02:40;100371.53;;;11.33;100.00
10638;BME280;47007;49.252;8.904;2023-05-19T01:03:22;100367.22;;;11.32;100.00
10638;BME280;47007;49.252;8.904;2023-05-19T01:04:04;100371.69;;;11.31;100.00
10638;BME280;47007;49.252;8.904;2023-05-19T01:04:50;100368.56;;;11.28;100.00
10638;BME280;47007;49.252;8.904;2023-05-19T01:05:32;100364.25;;;11.27;100.00
10638;BME280;47007;49.252;8.904;2023-05-19T01:06:14;100364.25;;;11.27;100.00
10638;BME280;47007;49.252;8.904;2023-05-19T01:06:56;100363.63;;;11.25;100.00
10638;BME280;47007;49.252;8.904;2023-05-19T01:07:39;100372.19;;;11.27;100.00
10638;BME280;47007;49.252;8.904;2023-05-19T01:08:22;100364.41;;;11.25;100.00
10638;BME280;47007;49.252;8.904;2023-05-19T01:09:04;100364.78;;;11.22;100.00
10638;BME280;47007;49.252;8.904;2023-05-19T01:09:46;100369.09;;;11.23;100.00
10638;BME280;47007;49.252;8.904;2023-05-19T01:10:27;100359.00;;;11.19;100.00
10638;BME280;47007;49.252;8.904;2023-05-19T01:11:09;100366.72;;;11.28;100.00
10638;BME280;47007;49.252;8.904;2023-05-19T01:11:52;100348.53;;;11.17;100.00
10638;BME280;47007;49.252;8.904;2023-05-19T01:12:34;100354.16;;;11.22;100.00
10638;BME280;47007;49.252;8.904;2023-05-19T01:13:16;100360.41;;;11.29;100.00
10638;BME280;47007;49.252;8.904;2023-05-19T01:13:58;100369.88;;;11.32;100.00
10638;BME280;47007;49.252;8.904;2023-05-19T01:14:41;100361.91;;;11.32;100.00
10638;BME280;47007;49.252;8.904;2023-05-19T01:15:24;100369.03;;;11.31;100.00
10638;BME280;47007;49.252;8.904;2023-05-19T01:16:28;100359.75;;;11.27;100.00
10638;BME280;47007;49.252;8.904;2023-05-19T01:17:27;100359.75;;;11.27;100.00
10638;BME280;47007;49.252;8.904;2023-05-19T01:18:13;100362.59;;;11.26;100.00
10638;BME280;47007;49.252;8.904;2023-05-19T01:20:26;100356.00;;;11.22;100.00
10638;BME280;47007;49.252;8.904;2023-05-19T01:22:44;100361.31;;;11.22;100.00
10638;BME280;47007;49.252;8.904;2023-05-19T01:24:31;100357.16;;;11.19;100.00
10638;BME280;47007;49.252;8.904;2023-05-19T01:27:26;100353.75;;;11.10;100.00
10638;BME280;47007;49.252;8.904;2023-05-19T01:30:36;100354.41;;;11.04;100.00
10638;BME280;47007;49.252;8.904;2023-05-19T01:31:20;100349.94;;;11.05;100.00
10638;BME280;47007;49.252;8.904;2023-05-19T01:32:05;100331.75;;;10.94;100.00
10638;BME280;47007;49.252;8.904;2023-05-19T01:32:49;100351.94;;;11.03;100.00
10638;BME280;47007;49.252;8.904;2023-05-19T01:33:38;100351.75;;;11.04;100.00
10638;BME280;47007;49.252;8.904;2023-05-19T01:34:22;100344.50;;;10.98;100.00
10638;BME280;47007;49.252;8.904;2023-05-19T01:35:05;100348.44;;;11.02;100.00
10638;BME280;47007;49.252;8.904;2023-05-19T01:35:49;100341.16;;;11.04;100.00
10638;BME280;47007;49.252;8.904;2023-05-19T01:36:32;100348.94;;;11.06;100.00
10638;BME280;47007;49.252;8.904;2023-05-19T01:37:15;100348.63;;;11.01;100.00
10638;BME280;47007;49.252;8.904;2023-05-19T01:38:00;100348.94;;;11.06;100.00
10638;BME280;47007;49.252;8.904;2023-05-19T01:38:42;100343.16;;;11.02;100.00
10638;BME280;47007;49.252;8.904;2023-05-19T01:39:27;100339.53;;;10.95;100.00
10638;BME280;47007;49.252;8.904;2023-05-19T01:40:09;100351.41;;;11.07;100.00
10638;BME280;47007;49.252;8.904;2023-05-19T01:40:51;100341.69;;;11.00;100.00
10638;BME280;47007;49.252;8.904;2023-05-19T01:41:33;100350.44;;;11.08;100.00
10638;BME280;47007;49.252;8.904;2023-05-19T01:42:16;100347.13;;;11.06;100.00
10638;BME280;47007;49.252;8.904;2023-05-19T01:42:59;100350.44;;;11.08;100.00
10638;BME280;47007;49.252;8.904;2023-05-19T01:43:41;100348.44;;;11.10;100.00
10638;BME280;47007;49.252;8.904;2023-05-19T01:44:23;100343.28;;;11.09;100.00
10638;BME280;47007;49.252;8.904;2023-05-19T01:45:06;100349.88;;;11.13;100.00
10638;BME280;47007;49.252;8.904;2023-05-19T01:45:51;100350.91;;;11.12;100.00
10638;BME280;47007;49.252;8.904;2023-05-19T01:46:35;100348.44;;;11.10;100.00
10638;BME280;47007;49.252;8.904;2023-05-19T01:47:17;100347.13;;;11.06;100.00
10638;BME280;47007;49.252;8.904;2023-05-19T01:48:03;100352.91;;;11.10;100.00
10638;BME280;47007;49.252;8.904;2023-05-19T01:48:46;100351.09;;;11.10;100.00
10638;BME280;47007;49.252;8.904;2023-05-19T01:49:28;100353.75;;;11.10;100.00
10638;BME280;47007;49.252;8.904;2023-05-19T01:50:09;100349.44;;;11.09;100.00
10638;BME280;47007;49.252;8.904;2023-05-19T01:50:51;100336.00;;;11.03;100.00
10638;BME280;47007;49.252;8.904;2023-05-19T01:51:34;100343.63;;;11.06;100.00
10638;BME280;47007;49.252;8.904;2023-05-19T01:52:16;100346.47;;;11.04;100.00
10638;BME280;47007;49.252;8.904;2023-05-19T01:52:58;100345.63;;;11.04;100.00
10638;BME280;47007;49.252;8.904;2023-05-19T01:53:40;100354.41;;;11.04;100.00
10638;BME280;47007;49.252;8.904;2023-05-19T01:54:22;100348.28;;;11.04;100.00
10638;BME280;47007;49.252;8.904;2023-05-19T01:55:09;100350.09;;;11.03;100.00
10638;BME280;47007;49.252;8.904;2023-05-19T01:55:53;100340.16;;;11.05;100.00
10638;BME280;47007;49.252;8.904;2023-05-19T01:57:59;100343.31;;;11.01;100.00
10638;BME280;47007;49.252;8.904;2023-05-19T01:58:46;100349.78;;;11.06;100.00
10638;BME280;47007;49.252;8.904;2023-05-19T02:01:21;100356.72;;;11.07;100.00
10638;BME280;47007;49.252;8.904;2023-05-19T02:03:04;100355.72;;;11.08;100.00
10638;BME280;47007;49.252;8.904;2023-05-19T02:05:33;100358.66;;;11.13;100.00
10638;BME280;47007;49.252;8.904;2023-05-19T02:07:51;100364.81;;;11.14;100.00
10638;BME280;47007;49.252;8.904;2023-05-19T02:08:42;100364.81;;;11.14;100.00
10638;BME280;47007;49.252;8.904;2023-05-19T02:09:38;100363.97;;;11.13;100.00
10638;BME280;47007;49.252;8.904;2023-05-19T02:10:26;100364.19;;;11.12;100.00
10638;BME280;47007;49.252;8.904;2023-05-19T02:11:16;100363.69;;;11.08;100.00
10638;BME280;47007;49.252;8.904;2023-05-19T02:12:09;100360.38;;;11.06;100.00
10638;BME280;47007;49.252;8.904;2023-05-19T02:12:52;100371.00;;;11.06;100.00
10638;BME280;47007;49.252;8.904;2023-05-19T02:13:36;100364.69;;;11.07;100.00
10638;BME280;47007;49.252;8.904;2023-05-19T02:14:29;100368.16;;;11.08;100.00
10638;BME280;47007;49.252;8.904;2023-05-19T02:15:23;100377.13;;;11.07;100.00
10638;BME280;47007;49.252;8.904;2023-05-19T02:16:07;100356.13;;;10.97;100.00
10638;BME280;47007;49.252;8.904;2023-05-19T02:16:49;100366.03;;;11.03;100.00
10638;BME280;47007;49.252;8.904;2023-05-19T02:17:35;100353.63;;;10.96;100.00
10638;BME280;47007;49.252;8.904;2023-05-19T02:18:17;100366.03;;;11.03;100.00
10638;BME280;47007;49.252;8.904;2023-05-19T02:20:03;100370.31;;;11.04;100.00
10638;BME280;47007;49.252;8.904;2023-05-19T02:20:45;100377.47;;;11.04;100.00
10638;BME280;47007;49.252;8.904;2023-05-19T02:21:27;100371.97;;;11.05;100.00
10638;BME280;47007;49.252;8.904;2023-05-19T02:22:09;100368.69;;;11.03;100.00
10638;BME280;47007;49.252;8.904;2023-05-19T02:22:51;100372.81;;;11.06;100.00
10638;BME280;47007;49.252;8.904;2023-05-19T02:23:32;100360.44;;;10.98;100.00
10638;BME280;47007;49.252;8.904;2023-05-19T02:24:14;100368.00;;;11.01;100.00
10638;BME280;47007;49.252;8.904;2023-05-19T02:24:57;100371.97;;;11.05;100.00
10638;BME280;47007;49.252;8.904;2023-05-19T02:25:39;100372.16;;;11.04;100.00
10638;BME280;47007;49.252;8.904;2023-05-19T02:26:21;100364.41;;;10.94;100.00
10638;BME280;47007;49.252;8.904;2023-05-19T02:27:03;100374.31;;;11.00;100.00
10638;BME280;47007;49.252;8.904;2023-05-19T02:27:45;100378.00;;;10.99;100.00
10638;BME280;47007;49.252;8.904;2023-05-19T02:28:27;100374.69;;;10.97;100.00
10638;BME280;47007;49.252;8.904;2023-05-19T02:29:09;100379.00;;;10.98;100.00
10638;BME280;47007;49.252;8.904;2023-05-19T02:29:51;100369.00;;;11.00;100.00
10638;BME280;47007;49.252;8.904;2023-05-19T02:30:32;100377.16;;;10.99;100.00
10638;BME280;47007;49.252;8.904;2023-05-19T02:31:15;100373.31;;;11.01;100.00
10638;BME280;47007;49.252;8.904;2023-05-19T02:31:57;100368.22;;;11.00;100.00
10638;BME280;47007;49.252;8.904;2023-05-19T02:32:39;100375.16;;;11.01;100.00
10638;BME280;47007;49.252;8.904;2023-05-19T02:33:21;100368.84;;;11.02;100.00
10638;BME280;47007;49.252;8.904;2023-05-19T02:34:06;100367.38;;;10.99;100.00
10638;BME280;47007;49.252;8.904;2023-05-19T02:34:50;100357.59;;;11.00;100.00
10638;BME280;47007;49.252;8.904;2023-05-19T02:35:33;100381.59;;;11.06;100.00
10638;BME280;47007;49.252;8.904;2023-05-19T02:36:15;100368.34;;;11.06;100.00
10638;BME280;47007;49.252;8.904;2023-05-19T02:36:57;100363.84;;;11.07;100.00
10638;BME280;47007;49.252;8.904;2023-05-19T02:37:39;100364.84;;;11.06;100.00
10638;BME280;47007;49.252;8.904;2023-05-19T02:38:21;100355.13;;;10.98;100.00
10638;BME280;47007;49.252;8.904;2023-05-19T02:39:03;100360.88;;;11.02;100.00
10638;BME280;47007;49.252;8.904;2023-05-19T02:39:45;100375.47;;;11.06;100.00
10638;BME280;47007;49.252;8.904;2023-05-19T02:40:27;100348.00;;;10.91;100.00
10638;BME280;47007;49.252;8.904;2023-05-19T02:41:08;100366.34;;;11.08;100.00
10638;BME280;47007;49.252;8.904;2023-05-19T02:41:51;100368.81;;;11.10;100.00
10638;BME280;47007;49.252;8.904;2023-05-19T02:42:32;100363.69;;;11.08;100.00
10638;BME280;47007;49.252;8.904;2023-05-19T02:43:14;100365.19;;;11.11;100.00
10638;BME280;47007;49.252;8.904;2023-05-19T02:43:56;100335.91;;;10.96;100.00
10638;BME280;47007;49.252;8.904;2023-05-19T02:44:38;100363.81;;;11.15;100.00
10638;BME280;47007;49.252;8.904;2023-05-19T02:45:20;100351.25;;;11.09;100.00
10638;BME280;47007;49.252;8.904;2023-05-19T02:46:02;100361.97;;;11.15;100.00
10638;BME280;47007;49.252;8.904;2023-05-19T02:46:43;100361.81;;;11.17;100.00
10638;BME280;47007;49.252;8.904;2023-05-19T02:47:26;100348.44;;;11.10;100.00
10638;BME280;47007;49.252;8.904;2023-05-19T02:48:07;100367.94;;;11.18;100.00
10638;BME280;47007;49.252;8.904;2023-05-19T02:48:50;100345.94;;;11.09;100.00
10638;BME280;47007;49.252;8.904;2023-05-19T02:49:33;100360.00;;;11.18;100.00
10638;BME280;47007;49.252;8.904;2023-05-19T02:50:18;100358.34;;;11.16;100.00
10638;BME280;47007;49.252;8.904;2023-05-19T02:51:00;100359.00;;;11.19;100.00
10638;BME280;47007;49.252;8.904;2023-05-19T02:51:42;100363.28;;;11.20;100.00
10638;BME280;47007;49.252;8.904;2023-05-19T02:52:24;100352.75;;;11.11;100.00
10638;BME280;47007;49.252;8.904;2023-05-19T02:53:06;100347.13;;;11.06;100.00
10638;BME280;47007;49.252;8.904;2023-05-19T02:53:47;100360.00;;;11.18;100.00
10638;BME280;47007;49.252;8.904;2023-05-19T02:54:30;100366.13;;;11.18;100.00
10638;BME280;47007;49.252;8.904;2023-05-19T02:55:12;100360.81;;;11.18;100.00
10638;BME280;47007;49.252;8.904;2023-05-19T02:55:57;100350.44;;;11.08;100.00
10638;BME280;47007;49.252;8.904;2023-05-19T02:56:39;100361.00;;;11.16;100.00
10638;BME280;47007;49.252;8.904;2023-05-19T02:57:21;100366.13;;;11.18;100.00
10638;BME280;47007;49.252;8.904;2023-05-19T02:58:03;100352.91;;;11.10;100.00
10638;BME280;47007;49.252;8.904;2023-05-19T02:58:44;100356.22;;;11.12;100.00
10638;BME280;47007;49.252;8.904;2023-05-19T02:59:26;100364.28;;;11.19;100.00
10638;BME280;47007;49.252;8.904;2023-05-19T03:00:08;100362.47;;;11.19;100.00
10638;BME280;47007;49.252;8.904;2023-05-19T03:00:50;100353.38;;;11.13;100.00
10638;BME280;47007;49.252;8.904;2023-05-19T03:01:32;100352.84;;;11.18;100.00
10638;BME280;47007;49.252;8.904;2023-05-19T03:02:14;100349.72;;;11.14;100.00
10638;BME280;47007;49.252;8.904;2023-05-19T03:02:56;100359.66;;;11.21;100.00
10638;BME280;47007;49.252;8.904;2023-05-19T03:03:43;100357.16;;;11.19;100.00
10638;BME280;47007;49.252;8.904;2023-05-19T03:04:25;100358.66;;;11.22;100.00
10638;BME280;47007;49.252;8.904;2023-05-19T03:05:08;100359.66;;;11.21;100.00
10638;BME280;47007;49.252;8.904;2023-05-19T03:05:50;100360.66;;;11.20;100.00
10638;BME280;47007;49.252;8.904;2023-05-19T03:06:34;100339.16;;;11.06;100.00
10638;BME280;47007;49.252;8.904;2023-05-19T03:07:16;100355.38;;;11.11;100.00
10638;BME280;47007;49.252;8.904;2023-05-19T03:07:58;100335.00;;;11.04;100.00
10638;BME280;47007;49.252;8.904;2023-05-19T03:08:40;100341.50;;;11.01;100.00
10638;BME280;47007;49.252;8.904;2023-05-19T03:09:23;100348.44;;;11.10;100.00
10638;BME280;47007;49.252;8.904;2023-05-19T03:10:05;100355.72;;;11.08;100.00
10638;BME280;47007;49.252;8.904;2023-05-19T03:10:47;100357.72;;;11.06;100.00
10638;BME280;47007;49.252;8.904;2023-05-19T03:11:29;100364.69;;;11.07;100.00
10638;BME280;47007;49.252;8.904;2023-05-19T03:12:11;100355.91;;;11.07;100.00
10638;BME280;47007;49.252;8.904;2023-05-19T03:12:53;100348.44;;;11.02;100.00
10638;BME280;47007;49.252;8.904;2023-05-19T03:13:35;100352.41;;;11.06;100.00
10638;BME280;47007;49.252;8.904;2023-05-19T03:14:17;100342.84;;;10.97;100.00
10638;BME280;47007;49.252;8.904;2023-05-19T03:14:59;100345.50;;;10.97;100.00
10638;BME280;47007;49.252;8.904;2023-05-19T03:15:41;100354.41;;;11.04;100.00
10638;BME280;47007;49.252;8.904;2023-05-19T03:16:23;100355.25;;;11.05;100.00
10638;BME280;47007;49.252;8.904;2023-05-19T03:17:05;100346.28;;;11.06;100.00
10638;BME280;47007;49.252;8.904;2023-05-19T03:17:50;100351.25;;;11.09;100.00
10638;BME280;47007;49.252;8.904;2023-05-19T03:18:33;100346.44;;;11.12;100.00
10638;BME280;47007;49.252;8.904;2023-05-19T03:19:15;100338.81;;;11.09;100.00
10638;BME280;47007;49.252;8.904;2023-05-19T03:19:56;100346.91;;;11.16;100.00
10638;BME280;47007;49.252;8.904;2023-05-19T03:20:38;100351.19;;;11.17;100.00
10638;BME280;47007;49.252;8.904;2023-05-19T03:21:22;100353.03;;;11.16;100.00
10638;BME280;47007;49.252;8.904;2023-05-19T03:22:07;100353.03;;;11.16;100.00
10638;BME280;47007;49.252;8.904;2023-05-19T03:22:49;100342.13;;;11.11;100.00
10638;BME280;47007;49.252;8.904;2023-05-19T03:23:31;100334.16;;;11.11;100.00
10638;BME280;47007;49.252;8.904;2023-05-19T03:24:13;100353.84;;;11.17;100.00
10638;BME280;47007;49.252;8.904;2023-05-19T03:24:54;100351.03;;;11.19;100.00
10638;BME280;47007;49.252;8.904;2023-05-19T03:25:36;100337.00;;;11.10;100.00
10638;BME280;47007;49.252;8.904;2023-05-19T03:26:18;100325.25;;;11.04;100.00
10638;BME280;47007;49.252;8.904;2023-05-19T03:27:00;100346.44;;;11.12;100.00
10638;BME280;47007;49.252;8.904;2023-05-19T03:27:45;100328.22;;;11.01;100.00
10638;BME280;47007;49.252;8.904;2023-05-19T03:28:26;100343.13;;;11.10;100.00
10638;BME280;47007;49.252;8.904;2023-05-19T03:29:08;100351.75;;;11.12;100.00
10638;BME280;47007;49.252;8.904;2023-05-19T03:29:51;100347.22;;;11.13;100.00
10638;BME280;47007;49.252;8.904;2023-05-19T03:30:34;100340.31;;;11.12;100.00
10638;BME280;47007;49.252;8.904;2023-05-19T03:31:23;100346.91;;;11.16;100.00
10638;BME280;47007;49.252;8.904;2023-05-19T03:32:05;100345.91;;;11.17;100.00
10638;BME280;47007;49.252;8.904;2023-05-19T03:32:47;100345.56;;;11.20;100.00
10638;BME280;47007;49.252;8.904;2023-05-19T03:33:29;100343.41;;;11.15;100.00
10638;BME280;47007;49.252;8.904;2023-05-19T03:34:11;100343.91;;;11.19;100.00
10638;BME280;47007;49.252;8.904;2023-05-19T03:34:53;100333.13;;;11.21;100.00
10638;BME280;47007;49.252;8.904;2023-05-19T03:35:35;100334.78;;;11.22;100.00
10638;BME280;47007;49.252;8.904;2023-05-19T03:36:17;100324.38;;;11.12;100.00
10638;BME280;47007;49.252;8.904;2023-05-19T03:36:59;100334.13;;;11.20;100.00
10638;BME280;47007;49.252;8.904;2023-05-19T03:37:41;100342.72;;;11.22;100.00
10638;BME280;47007;49.252;8.904;2023-05-19T03:38:22;100337.75;;;11.19;100.00
10638;BME280;47007;49.252;8.904;2023-05-19T03:39:09;100353.63;;;11.27;100.00
10638;BME280;47007;49.252;8.904;2023-05-19T03:39:52;100342.06;;;11.20;100.00
10638;BME280;47007;49.252;8.904;2023-05-19T03:40:34;100349.97;;;11.28;100.00
10638;BME280;47007;49.252;8.904;2023-05-19T03:41:22;100354.47;;;11.27;100.00
10638;BME280;47007;49.252;8.904;2023-05-19T03:42:05;100350.53;;;11.23;100.00
10638;BME280;47007;49.252;8.904;2023-05-19T03:42:46;100361.75;;;11.25;100.00
10638;BME280;47007;49.252;8.904;2023-05-19T03:43:28;100348.38;;;11.19;100.00
10638;BME280;47007;49.252;8.904;2023-05-19T03:44:14;100347.03;;;11.23;100.00
10638;BME280;47007;49.252;8.904;2023-05-19T03:44:56;100345.72;;;11.19;100.00
10638;BME280;47007;49.252;8.904;2023-05-19T03:45:38;100340.94;;;11.14;100.00
10638;BME280;47007;49.252;8.904;2023-05-19T03:46:40;100342.06;;;11.20;100.00
10638;BME280;47007;49.252;8.904;2023-05-19T03:47:45;100348.88;;;11.22;100.00
10638;BME280;47007;49.252;8.904;2023-05-19T03:49:00;100354.03;;;11.15;100.00
10638;BME280;47007;49.252;8.904;2023-05-19T03:50:00;100352.84;;;11.18;100.00
10638;BME280;47007;49.252;8.904;2023-05-19T03:51:05;100346.56;;;11.19;100.00
10638;BME280;47007;49.252;8.904;2023-05-19T03:51:47;100350.53;;;11.15;100.00
10638;BME280;47007;49.252;8.904;2023-05-19T03:52:42;100341.13;;;11.12;100.00
10638;BME280;47007;49.252;8.904;2023-05-19T03:53:55;100357.66;;;11.23;100.00
10638;BME280;47007;49.252;8.904;2023-05-19T03:54:37;100339.94;;;11.15;100.00
10638;BME280;47007;49.252;8.904;2023-05-19T03:55:20;100354.00;;;11.24;100.00
10638;BME280;47007;49.252;8.904;2023-05-19T03:56:01;100340.94;;;11.14;100.00
10638;BME280;47007;49.252;8.904;2023-05-19T03:56:43;100335.16;;;11.10;100.00
10638;BME280;47007;49.252;8.904;2023-05-19T03:57:25;100347.72;;;11.16;100.00
10638;BME280;47007;49.252;8.904;2023-05-19T03:58:08;100343.59;;;11.14;100.00
10638;BME280;47007;49.252;8.904;2023-05-19T03:58:51;100357.00;;;11.21;100.00
10638;BME280;47007;49.252;8.904;2023-05-19T03:59:35;100362.31;;;11.21;100.00
10638;BME280;47007;49.252;8.904;2023-05-19T04:00:18;100356.34;;;11.19;100.00
10638;BME280;47007;49.252;8.904;2023-05-19T04:01:00;100361.47;;;11.20;100.00
10638;BME280;47007;49.252;8.904;2023-05-19T04:01:42;100352.75;;;11.11;100.00